Time;durP1;ratioP1;P1;durP2;ratioP2;P2;SDS_P1;SDS_P2;PMS_P1;PMS_P2;Temp;Humidity;BMP_temperature;BMP_pressure;BME280_temperature;BME280_humidity;BME280_pressure;Samples;Min_cycle;Max_cycle;Signal;HPM_P1;HPM_P2
2021/09/28 00:01:21;;;;;;;7.70;2.93;;;16.10;99.90;;;;;;5102518;28;21136;-85
2021/09/28 00:03:48;;;;;;;11.13;3.53;;;16.10;99.90;;;;;;5100610;28;20460;-85
2021/09/28 00:06:17;;;;;;;6.20;2.80;;;16.10;99.90;;;;;;5100405;28;20531;-84
2021/09/28 00:08:44;;;;;;;5.83;2.53;;;16.00;99.90;;;;;;5103361;28;20532;-84
2021/09/28 00:11:12;;;;;;;4.50;3.50;;;16.00;99.90;;;;;;5097123;28;21362;-84
2021/09/28 00:13:39;;;;;;;8.10;3.00;;;16.00;99.90;;;;;;5096141;28;20451;-86
2021/09/28 00:16:07;;;;;;;5.77;2.73;;;15.90;99.90;;;;;;5098324;28;20985;-84
2021/09/28 00:18:34;;;;;;;7.47;2.87;;;16.00;99.90;;;;;;5103673;28;20463;-85
2021/09/28 00:21:01;;;;;;;5.87;2.60;;;16.00;99.90;;;;;;5104906;28;20858;-85
2021/09/28 00:23:41;;;;;;;7.40;3.50;;;16.00;99.90;;;;;;5103784;28;20449;-83
2021/09/28 00:26:09;;;;;;;7.53;3.53;;;16.00;99.90;;;;;;5094798;28;20480;-83
2021/09/28 00:28:37;;;;;;;4.63;2.67;;;16.10;99.90;;;;;;5095080;28;20574;-83
2021/09/28 00:31:04;;;;;;;6.70;3.73;;;16.10;99.90;;;;;;5103370;28;20499;-83
2021/09/28 00:33:31;;;;;;;4.93;2.90;;;16.10;99.90;;;;;;5102244;28;20466;-84
2021/09/28 00:35:58;;;;;;;5.50;2.60;;;16.10;99.90;;;;;;5100886;28;20510;-84
2021/09/28 00:38:25;;;;;;;7.00;2.90;;;16.10;99.90;;;;;;5095687;28;20991;-84
2021/09/28 00:40:54;;;;;;;9.00;3.53;;;16.10;99.90;;;;;;5097603;28;20972;-84
2021/09/28 00:43:21;;;;;;;4.97;2.50;;;16.10;99.90;;;;;;5102532;28;20456;-84
2021/09/28 00:45:48;;;;;;;6.90;2.87;;;16.10;99.90;;;;;;5099633;28;20487;-84
2021/09/28 00:48:15;;;;;;;10.20;3.17;;;16.10;99.90;;;;;;5094120;28;20462;-84
2021/09/28 00:50:44;;;;;;;2.57;2.37;;;16.10;99.90;;;;;;5096272;28;20462;-84
2021/09/28 00:53:11;;;;;;;10.00;2.87;;;16.10;99.90;;;;;;5094667;28;20511;-83
2021/09/28 00:55:39;;;;;;;8.20;2.67;;;16.10;99.90;;;;;;5101445;28;20541;-83
2021/09/28 00:58:09;;;;;;;10.03;2.87;;;16.20;99.90;;;;;;5099773;28;20462;-83
2021/09/28 01:00:38;;;;;;;6.43;2.50;;;16.20;99.90;;;;;;5104441;28;20469;-85
2021/09/28 01:03:07;;;;;;;6.23;3.13;;;16.20;99.90;;;;;;5097050;28;20454;-84
2021/09/28 01:05:34;;;;;;;5.10;3.30;;;16.10;99.90;;;;;;5093646;28;21028;-84
2021/09/28 01:08:02;;;;;;;6.97;2.67;;;16.10;99.90;;;;;;5097553;28;20455;-84
2021/09/28 01:10:30;;;;;;;10.30;2.97;;;16.10;99.90;;;;;;5095526;28;20515;-83
2021/09/28 01:12:56;;;;;;;5.60;2.80;;;16.10;99.90;;;;;;5097091;28;20462;-85
2021/09/28 01:15:25;;;;;;;7.33;2.90;;;16.10;99.90;;;;;;5102254;28;20465;-85
2021/09/28 01:17:52;;;;;;;5.60;2.93;;;16.10;99.90;;;;;;5102789;28;20459;-85
2021/09/28 01:20:19;;;;;;;5.47;3.30;;;16.10;99.90;;;;;;5096496;28;20545;-84
2021/09/28 01:22:47;;;;;;;4.10;2.30;;;16.10;99.90;;;;;;5099438;28;20827;-85
2021/09/28 01:25:14;;;;;;;8.23;3.33;;;16.10;99.90;;;;;;5095646;28;21157;-84
2021/09/28 01:27:41;;;;;;;9.37;2.93;;;16.10;99.90;;;;;;5101391;28;20575;-83
2021/09/28 01:30:11;;;;;;;4.00;1.90;;;16.10;99.90;;;;;;5098130;28;20556;-84
2021/09/28 01:32:38;;;;;;;5.87;2.80;;;16.10;99.90;;;;;;5102042;28;20504;-85
2021/09/28 01:35:07;;;;;;;6.43;2.63;;;16.10;99.90;;;;;;5097065;28;20467;-83
2021/09/28 01:37:35;;;;;;;5.40;2.80;;;16.10;99.90;;;;;;5098108;28;20467;-86
2021/09/28 01:40:05;;;;;;;6.10;2.40;;;16.10;99.90;;;;;;5100427;28;20549;-86
2021/09/28 01:42:32;;;;;;;6.57;2.70;;;16.10;99.90;;;;;;5093969;28;20468;-85
2021/09/28 01:44:59;;;;;;;6.20;2.90;;;16.00;99.90;;;;;;5097994;28;20458;-84
2021/09/28 01:47:26;;;;;;;5.00;2.93;;;16.00;99.90;;;;;;5102885;28;20563;-85
2021/09/28 01:49:53;;;;;;;5.00;2.87;;;16.00;99.90;;;;;;5094760;28;20457;-86
2021/09/28 01:52:20;;;;;;;5.17;2.43;;;16.00;99.90;;;;;;5094913;28;20457;-84
2021/09/28 01:54:47;;;;;;;2.33;2.00;;;16.00;99.90;;;;;;5093812;28;20547;-84
2021/09/28 01:57:15;;;;;;;9.37;3.40;;;15.90;99.90;;;;;;5102225;28;20515;-84
2021/09/28 01:59:42;;;;;;;5.37;2.63;;;15.90;99.90;;;;;;5100798;28;20466;-83
2021/09/28 02:02:09;;;;;;;4.77;2.37;;;15.90;99.90;;;;;;5096282;27;20550;-84
2021/09/28 02:04:37;;;;;;;6.63;2.30;;;15.90;99.90;;;;;;5096397;28;20458;-86
2021/09/28 02:07:04;;;;;;;8.97;3.33;;;15.80;99.90;;;;;;5094446;28;20495;-85
2021/09/28 02:09:31;;;;;;;6.33;2.80;;;15.80;99.90;;;;;;5093683;28;20465;-85
2021/09/28 02:11:58;;;;;;;6.30;3.23;;;15.80;99.90;;;;;;5096189;28;20461;-86
2021/09/28 02:14:28;;;;;;;4.57;3.23;;;15.80;99.90;;;;;;5098931;28;20533;-84
2021/09/28 02:16:55;;;;;;;8.57;2.50;;;15.80;99.90;;;;;;5096534;28;20470;-86
2021/09/28 02:19:24;;;;;;;6.63;2.30;;;15.80;99.90;;;;;;5095843;28;20961;-83
2021/09/28 02:21:51;;;;;;;5.97;3.70;;;15.70;99.90;;;;;;5099708;28;20457;-84
2021/09/28 02:24:18;;;;;;;6.20;2.83;;;15.80;99.90;;;;;;5096233;28;20460;-85
2021/09/28 02:26:46;;;;;;;7.17;3.00;;;15.80;99.90;;;;;;5097108;28;20563;-85
2021/09/28 02:29:13;;;;;;;6.87;2.33;;;15.80;99.90;;;;;;5101276;28;20483;-84
2021/09/28 02:31:41;;;;;;;3.70;2.00;;;15.70;99.90;;;;;;5097522;28;20473;-86
2021/09/28 02:34:10;;;;;;;7.83;3.10;;;15.80;99.90;;;;;;5095299;28;20457;-84
2021/09/28 02:36:38;;;;;;;3.80;2.20;;;15.80;99.90;;;;;;5099653;28;20466;-86
2021/09/28 02:39:08;;;;;;;10.90;3.23;;;15.80;99.90;;;;;;5102075;28;20449;-83
2021/09/28 02:41:36;;;;;;;7.07;2.60;;;15.70;99.90;;;;;;5099449;28;20820;-85
2021/09/28 02:44:04;;;;;;;9.30;3.57;;;15.80;99.90;;;;;;5097006;28;20521;-84
2021/09/28 02:46:32;;;;;;;3.37;2.27;;;15.80;99.90;;;;;;5091486;28;20483;-83
2021/09/28 02:49:03;;;;;;;7.77;2.63;;;15.80;99.90;;;;;;5099266;28;20948;-85
2021/09/28 02:51:31;;;;;;;4.60;2.63;;;15.80;99.90;;;;;;5093221;28;20948;-84
2021/09/28 02:53:57;;;;;;;9.97;3.10;;;15.80;99.90;;;;;;5094509;28;20990;-84
2021/09/28 02:56:26;;;;;;;14.47;3.80;;;15.80;99.90;;;;;;5092943;28;20461;-84
2021/09/28 02:58:53;;;;;;;9.90;2.70;;;15.80;99.90;;;;;;5099321;28;20845;-86
2021/09/28 03:01:19;;;;;;;6.70;3.00;;;15.70;99.90;;;;;;5092946;28;20461;-85
2021/09/28 03:03:46;;;;;;;10.73;2.70;;;15.80;99.90;;;;;;5098406;28;20471;-83
2021/09/28 03:06:15;;;;;;;9.07;2.90;;;15.80;99.90;;;;;;5094446;28;20457;-84
2021/09/28 03:08:43;;;;;;;7.80;2.80;;;15.70;99.90;;;;;;5098323;28;20455;-84
2021/09/28 03:11:11;;;;;;;8.97;2.83;;;15.70;99.90;;;;;;5092429;28;20462;-83
2021/09/28 03:13:38;;;;;;;6.93;3.20;;;15.70;99.90;;;;;;5099918;28;20480;-84
2021/09/28 03:16:06;;;;;;;4.93;2.80;;;15.60;99.90;;;;;;5099469;28;20477;-86
2021/09/28 03:18:32;;;;;;;6.70;3.27;;;15.60;99.90;;;;;;5097011;28;20463;-85
2021/09/28 03:20:59;;;;;;;6.13;2.50;;;15.60;99.90;;;;;;5094207;28;20980;-85
2021/09/28 03:23:28;;;;;;;6.17;3.03;;;15.60;99.90;;;;;;5101508;28;20457;-83
2021/09/28 03:25:55;;;;;;;7.50;2.60;;;15.60;99.90;;;;;;5087419;28;20555;-86
2021/09/28 03:28:22;;;;;;;5.33;2.93;;;15.50;99.90;;;;;;5096247;28;20493;-84
2021/09/28 03:30:49;;;;;;;9.70;2.90;;;15.50;99.90;;;;;;5094740;28;20521;-86
2021/09/28 03:33:16;;;;;;;7.70;2.97;;;15.50;99.90;;;;;;5092607;28;20468;-84
2021/09/28 03:35:44;;;;;;;4.43;2.07;;;15.50;99.90;;;;;;5098300;28;20471;-83
2021/09/28 03:38:11;;;;;;;7.13;3.93;;;15.50;99.90;;;;;;5098066;28;20484;-85
2021/09/28 03:40:40;;;;;;;6.30;4.67;;;15.40;99.90;;;;;;5101858;28;20543;-85
2021/09/28 03:43:08;;;;;;;3.37;2.20;;;15.40;99.90;;;;;;5097609;28;20475;-85
2021/09/28 03:45:35;;;;;;;8.30;2.77;;;15.40;99.90;;;;;;5102059;28;20464;-83
2021/09/28 03:48:03;;;;;;;6.77;2.97;;;15.40;99.90;;;;;;5100699;28;21052;-83
2021/09/28 03:50:31;;;;;;;11.13;2.10;;;15.30;99.90;;;;;;5097157;28;20467;-84
2021/09/28 03:52:58;;;;;;;3.50;2.40;;;15.30;99.90;;;;;;5096281;28;20453;-83
2021/09/28 03:55:25;;;;;;;7.30;2.70;;;15.30;99.90;;;;;;5101156;28;20472;-86
2021/09/28 03:57:54;;;;;;;5.43;2.30;;;15.30;99.90;;;;;;5099447;28;20556;-83
2021/09/28 04:00:23;;;;;;;6.07;2.80;;;15.30;99.90;;;;;;5101576;28;20460;-85
2021/09/28 04:02:50;;;;;;;5.60;2.97;;;15.20;99.90;;;;;;5099365;28;20970;-84
2021/09/28 04:05:17;;;;;;;5.07;2.27;;;15.20;99.90;;;;;;5097862;28;20465;-84
2021/09/28 04:07:44;;;;;;;5.97;2.37;;;15.20;99.90;;;;;;5100570;28;20496;-84
2021/09/28 04:10:12;;;;;;;9.70;3.10;;;15.30;99.90;;;;;;5101185;28;20467;-85
2021/09/28 04:12:39;;;;;;;7.10;2.50;;;15.30;99.90;;;;;;5101392;28;20476;-86
2021/09/28 04:15:09;;;;;;;5.63;2.90;;;15.30;99.90;;;;;;5097907;28;20454;-84
2021/09/28 04:17:36;;;;;;;6.97;2.57;;;15.20;99.90;;;;;;5098087;28;20546;-83
2021/09/28 04:20:05;;;;;;;5.33;2.97;;;15.30;99.90;;;;;;5103110;28;20462;-84
2021/09/28 04:22:32;;;;;;;7.77;2.50;;;15.30;99.90;;;;;;5099115;28;20465;-84
2021/09/28 04:25:02;;;;;;;3.70;3.40;;;15.20;99.90;;;;;;5096157;27;20483;-85
2021/09/28 04:27:29;;;;;;;6.97;2.40;;;15.30;99.90;;;;;;5098803;28;20826;-83
2021/09/28 04:29:55;;;;;;;2.70;2.10;;;15.30;99.90;;;;;;5095518;28;20492;-84
2021/09/28 04:32:24;;;;;;;6.43;3.00;;;15.30;99.90;;;;;;5103618;28;20547;-83
2021/09/28 04:34:51;;;;;;;5.50;2.60;;;15.30;99.90;;;;;;5095761;28;20832;-84
2021/09/28 04:37:19;;;;;;;8.03;2.70;;;15.20;99.90;;;;;;5094287;28;20467;-84
2021/09/28 04:39:46;;;;;;;11.23;3.80;;;15.20;99.90;;;;;;5098864;28;21094;-86
2021/09/28 04:42:16;;;;;;;5.30;2.27;;;15.30;99.90;;;;;;5094372;28;20543;-83
2021/09/28 04:44:43;;;;;;;6.70;4.20;;;15.20;99.90;;;;;;5099983;28;20458;-83
2021/09/28 04:47:10;;;;;;;4.33;2.57;;;15.20;99.90;;;;;;5103428;28;20475;-83
2021/09/28 04:49:39;;;;;;;6.23;2.33;;;15.20;99.90;;;;;;5100102;28;20858;-84
2021/09/28 04:52:07;;;;;;;7.70;2.33;;;15.20;99.90;;;;;;5099091;28;21066;-87
2021/09/28 04:54:34;;;;;;;7.27;3.47;;;15.10;99.90;;;;;;5095770;28;20457;-86
2021/09/28 04:57:01;;;;;;;3.63;2.33;;;15.10;99.90;;;;;;5100496;28;20472;-85
2021/09/28 04:59:28;;;;;;;3.77;2.20;;;15.10;99.90;;;;;;5103110;28;20481;-83
2021/09/28 05:01:56;;;;;;;4.80;2.43;;;15.10;99.90;;;;;;5096382;28;20459;-83
2021/09/28 05:04:23;;;;;;;6.57;2.60;;;15.00;99.90;;;;;;5097184;28;20476;-83
2021/09/28 05:06:52;;;;;;;8.80;2.60;;;15.00;99.90;;;;;;5095589;28;20464;-86
2021/09/28 05:09:20;;;;;;;6.53;2.90;;;15.00;99.90;;;;;;5096041;28;20551;-84
2021/09/28 05:11:46;;;;;;;5.23;2.37;;;15.00;99.90;;;;;;5093905;28;20462;-83
2021/09/28 05:14:14;;;;;;;3.90;3.00;;;15.00;99.90;;;;;;5096929;28;20820;-86
2021/09/28 05:16:40;;;;;;;6.17;2.70;;;14.90;99.90;;;;;;5092431;28;20464;-85
2021/09/28 05:19:08;;;;;;;6.87;2.30;;;14.90;99.90;;;;;;5102329;28;20472;-84
2021/09/28 05:21:36;;;;;;;2.57;2.30;;;14.90;99.90;;;;;;5097949;28;20476;-85
2021/09/28 05:24:09;;;;;;;9.43;2.57;;;14.90;99.90;;;;;;5096453;28;20474;-83
2021/09/28 05:26:39;;;;;;;9.20;2.80;;;14.90;99.90;;;;;;5100018;28;20526;-85
2021/09/28 05:29:06;;;;;;;3.87;2.50;;;14.80;99.90;;;;;;5097655;28;21052;-83
2021/09/28 05:31:34;;;;;;;6.30;2.70;;;14.80;99.90;;;;;;5100728;28;20481;-84
2021/09/28 05:34:35;;;;;;;6.60;2.77;;;14.80;99.90;;;;;;5092765;28;20577;-84
2021/09/28 05:37:02;;;;;;;7.00;2.90;;;14.80;99.90;;;;;;5101191;28;20463;-85
2021/09/28 05:39:31;;;;;;;9.30;2.53;;;14.80;99.90;;;;;;5097362;28;20470;-85
2021/09/28 05:41:58;;;;;;;12.83;2.70;;;14.80;99.90;;;;;;5095232;28;20475;-83
2021/09/28 05:44:25;;;;;;;7.80;3.00;;;14.80;99.90;;;;;;5095792;28;20467;-83
2021/09/28 05:46:59;;;;;;;7.77;2.60;;;14.80;99.90;;;;;;5095512;28;20492;-85
2021/09/28 05:49:26;;;;;;;6.27;2.73;;;14.80;99.90;;;;;;5095351;28;20472;-85
2021/09/28 05:51:56;;;;;;;11.93;2.30;;;14.80;99.90;;;;;;5092296;28;20462;-87
2021/09/28 05:54:24;;;;;;;4.90;2.50;;;14.80;99.90;;;;;;5090869;28;20530;-85
2021/09/28 05:56:53;;;;;;;13.63;2.53;;;14.80;99.90;;;;;;5090598;28;20964;-84
2021/09/28 05:59:21;;;;;;;10.93;2.60;;;14.80;99.90;;;;;;5093691;28;20471;-85
2021/09/28 06:01:49;;;;;;;12.80;3.33;;;14.80;99.90;;;;;;5092808;28;20469;-84
2021/09/28 06:04:16;;;;;;;13.87;2.90;;;14.80;99.90;;;;;;5094670;28;20454;-84
2021/09/28 06:06:43;;;;;;;15.57;2.90;;;14.80;99.90;;;;;;5099963;28;20976;-83
2021/09/28 06:09:11;;;;;;;6.10;2.23;;;14.80;99.90;;;;;;5101302;28;20493;-86
2021/09/28 06:11:40;;;;;;;11.67;2.43;;;14.80;99.90;;;;;;5100705;28;20475;-84
2021/09/28 06:14:09;;;;;;;9.80;2.60;;;14.80;99.90;;;;;;5093695;28;20461;-84
2021/09/28 06:16:36;;;;;;;4.20;2.23;;;14.80;99.90;;;;;;5096132;28;20457;-83
2021/09/28 06:19:04;;;;;;;11.37;3.13;;;14.80;99.90;;;;;;5099622;28;20454;-82
2021/09/28 06:21:31;;;;;;;4.83;2.70;;;14.80;99.90;;;;;;5096995;28;20453;-83
2021/09/28 06:23:58;;;;;;;9.53;3.60;;;14.80;99.90;;;;;;5097185;28;20463;-84
2021/09/28 06:26:25;;;;;;;8.40;2.93;;;14.80;99.90;;;;;;5095493;28;20516;-84
2021/09/28 06:28:52;;;;;;;13.10;3.10;;;14.80;99.90;;;;;;5096574;28;20494;-83
2021/09/28 06:31:21;;;;;;;4.60;2.40;;;14.80;99.90;;;;;;5096447;28;20481;-84
2021/09/28 06:33:48;;;;;;;9.13;2.57;;;14.80;99.90;;;;;;5093466;28;20565;-84
2021/09/28 06:36:17;;;;;;;4.40;2.40;;;14.80;99.90;;;;;;5099696;28;20856;-83
2021/09/28 06:38:44;;;;;;;6.60;2.70;;;14.90;99.90;;;;;;5098010;28;20457;-85
2021/09/28 06:41:12;;;;;;;4.73;2.67;;;14.80;99.90;;;;;;5089192;28;20500;-85
2021/09/28 06:43:39;;;;;;;7.03;2.43;;;14.80;99.90;;;;;;5092763;28;21217;-84
2021/09/28 06:46:06;;;;;;;6.90;2.83;;;14.90;99.90;;;;;;5090676;28;20841;-83
2021/09/28 06:48:36;;;;;;;5.53;2.50;;;14.90;99.90;;;;;;5088968;28;20489;-85
2021/09/28 06:51:04;;;;;;;3.80;2.30;;;14.90;99.90;;;;;;5097898;28;20465;-86
2021/09/28 06:53:32;;;;;;;5.93;2.40;;;14.90;99.90;;;;;;5094415;28;20478;-85
2021/09/28 06:56:00;;;;;;;4.17;1.93;;;15.00;99.90;;;;;;5091367;28;20473;-83
2021/09/28 06:58:27;;;;;;;6.63;3.17;;;15.00;99.90;;;;;;5093443;28;20486;-85
2021/09/28 07:00:54;;;;;;;6.27;2.40;;;15.00;99.90;;;;;;5092459;28;21098;-85
2021/09/28 07:03:21;;;;;;;5.87;2.20;;;15.00;99.90;;;;;;5088893;28;20500;-85
2021/09/28 07:05:50;;;;;;;2.53;2.33;;;15.10;99.90;;;;;;5090012;28;20495;-83
2021/09/28 07:08:17;;;;;;;3.50;2.30;;;15.10;99.90;;;;;;5093852;28;20489;-84
2021/09/28 07:10:44;;;;;;;4.30;3.07;;;15.10;99.90;;;;;;5092758;28;20472;-84
2021/09/28 07:13:11;;;;;;;6.30;3.03;;;15.10;99.90;;;;;;5094791;28;20457;-83
2021/09/28 07:15:38;;;;;;;6.60;2.30;;;15.20;99.90;;;;;;5092066;28;20803;-83
2021/09/28 07:18:05;;;;;;;8.00;2.20;;;15.20;99.90;;;;;;5103271;28;20515;-84
2021/09/28 07:20:33;;;;;;;9.43;3.30;;;15.20;99.90;;;;;;5095039;28;21019;-85
2021/09/28 07:23:01;;;;;;;7.37;2.73;;;15.30;99.90;;;;;;5097518;28;20466;-83
2021/09/28 07:25:28;;;;;;;7.30;2.50;;;15.30;99.90;;;;;;5097998;28;20466;-82
2021/09/28 07:27:58;;;;;;;7.03;2.40;;;15.30;99.90;;;;;;5099347;28;20489;-83
2021/09/28 07:30:25;;;;;;;8.17;2.37;;;15.40;99.90;;;;;;5096926;28;20473;-84
2021/09/28 07:32:53;;;;;;;5.90;2.57;;;15.40;99.90;;;;;;5096557;28;20461;-83
2021/09/28 07:35:20;;;;;;;6.13;1.90;;;15.40;99.90;;;;;;5102289;28;20855;-83
2021/09/28 07:37:47;;;;;;;7.53;2.10;;;15.50;99.90;;;;;;5100087;28;20474;-83
2021/09/28 07:40:17;;;;;;;5.90;2.83;;;15.50;99.90;;;;;;5100466;28;20971;-84
2021/09/28 07:42:44;;;;;;;10.83;4.87;;;15.60;99.90;;;;;;5096775;28;20465;-84
2021/09/28 07:45:11;;;;;;;6.90;3.40;;;15.60;99.90;;;;;;5097985;28;20456;-84
2021/09/28 07:47:38;;;;;;;9.57;3.73;;;15.60;99.90;;;;;;5096992;28;20463;-84
2021/09/28 07:50:06;;;;;;;5.90;2.47;;;15.60;99.90;;;;;;5096880;28;20468;-83
2021/09/28 07:52:33;;;;;;;4.67;2.37;;;15.70;99.90;;;;;;5095966;28;20453;-86
2021/09/28 07:55:00;;;;;;;9.33;2.73;;;15.70;99.90;;;;;;5103024;28;20467;-83
2021/09/28 07:57:29;;;;;;;5.33;2.60;;;15.70;99.90;;;;;;5101236;28;20454;-84
2021/09/28 07:59:56;;;;;;;12.10;2.50;;;15.70;99.90;;;;;;5100225;28;20454;-84
2021/09/28 08:02:23;;;;;;;6.70;2.07;;;15.80;99.90;;;;;;5092527;28;21023;-84
2021/09/28 08:04:50;;;;;;;7.40;2.70;;;15.80;99.90;;;;;;5095876;28;20472;-83
2021/09/28 08:07:17;;;;;;;6.70;1.97;;;15.80;99.90;;;;;;5097143;28;20560;-84
2021/09/28 08:09:44;;;;;;;5.90;2.13;;;15.90;99.90;;;;;;5093924;28;20523;-83
2021/09/28 08:12:12;;;;;;;7.37;2.17;;;15.90;99.90;;;;;;5094596;28;20454;-83
2021/09/28 08:14:40;;;;;;;5.43;2.37;;;15.90;99.90;;;;;;5103125;28;20820;-85
2021/09/28 08:17:08;;;;;;;5.30;2.00;;;16.00;99.90;;;;;;5100628;28;20484;-85
2021/09/28 08:19:39;;;;;;;7.03;2.33;;;16.00;99.90;;;;;;5098992;28;20863;-84
2021/09/28 08:22:08;;;;;;;6.83;2.30;;;16.00;99.90;;;;;;5097871;28;20461;-83
2021/09/28 08:24:40;;;;;;;12.10;3.10;;;16.10;99.90;;;;;;5096418;28;20559;-84
2021/09/28 08:29:57;;;;;;;11.30;2.77;;;16.10;99.90;;;;;;5097437;28;22115;-84
2021/09/28 08:32:24;;;;;;;5.60;2.20;;;16.20;99.90;;;;;;5102607;28;20460;-84
2021/09/28 08:34:52;;;;;;;2.50;1.57;;;16.20;99.90;;;;;;5097195;28;20557;-84
2021/09/28 08:37:21;;;;;;;4.40;1.80;;;16.20;99.90;;;;;;5099258;28;20472;-85
2021/09/28 08:39:48;;;;;;;4.17;2.13;;;16.20;99.90;;;;;;5092115;28;20950;-84
2021/09/28 08:42:15;;;;;;;19.63;3.03;;;16.30;99.90;;;;;;5103598;28;20481;-86
2021/09/28 08:44:43;;;;;;;9.03;2.40;;;16.30;99.90;;;;;;5097199;28;20454;-84
2021/09/28 08:47:12;;;;;;;5.40;1.90;;;16.30;99.90;;;;;;5099536;28;20539;-83
2021/09/28 08:49:40;;;;;;;5.33;4.20;;;16.40;99.90;;;;;;5103934;28;20611;-83
2021/09/28 08:52:10;;;;;;;3.63;2.00;;;16.40;99.90;;;;;;5098893;28;20566;-84
2021/09/28 08:54:37;;;;;;;8.07;2.67;;;16.50;99.90;;;;;;5096478;28;20788;-85
2021/09/28 08:57:05;;;;;;;5.87;2.73;;;16.50;99.90;;;;;;5103340;28;20974;-86
2021/09/28 08:59:49;;;;;;;5.80;2.03;;;16.50;99.90;;;;;;5097108;28;20513;-83
2021/09/28 09:02:18;;;;;;;6.37;2.10;;;16.60;99.90;;;;;;5098161;28;20473;-85
2021/09/28 09:05:02;;;;;;;6.50;2.17;;;16.60;99.90;;;;;;5094237;28;21192;-85
2021/09/28 09:07:30;;;;;;;7.13;2.23;;;16.60;99.90;;;;;;5094885;28;20527;-83
2021/09/28 09:09:59;;;;;;;4.13;2.00;;;16.70;99.90;;;;;;5095285;28;20582;-85
2021/09/28 09:12:34;;;;;;;7.27;2.30;;;16.70;99.90;;;;;;5095302;28;21010;-83
2021/09/28 09:15:22;;;;;;;7.40;2.43;;;16.70;99.90;;;;;;5096494;28;21306;-83
2021/09/28 09:17:53;;;;;;;4.10;2.20;;;16.80;99.90;;;;;;5095540;28;20514;-84
2021/09/28 09:20:33;;;;;;;6.00;2.80;;;16.80;99.90;;;;;;5093441;28;21142;-84
2021/09/28 09:23:25;;;;;;;3.60;2.20;;;16.90;99.90;;;;;;5092235;28;20832;-84
2021/09/28 09:26:10;;;;;;;7.57;2.90;;;16.90;99.90;;;;;;5095031;28;20547;-85
2021/09/28 09:28:43;;;;;;;6.47;2.80;;;16.90;99.90;;;;;;5093562;28;20518;-84
2021/09/28 09:31:24;;;;;;;5.33;2.53;;;17.00;99.90;;;;;;5095977;28;20483;-85
2021/09/28 09:33:57;;;;;;;7.83;2.53;;;17.00;99.90;;;;;;5092329;28;20536;-85
2021/09/28 09:36:27;;;;;;;4.30;2.20;;;17.10;99.90;;;;;;5094355;28;20471;-83
2021/09/28 09:38:56;;;;;;;4.90;2.87;;;17.10;99.90;;;;;;5090150;28;20460;-83
2021/09/28 09:41:31;;;;;;;6.07;2.30;;;17.20;99.90;;;;;;5094287;28;20456;-83
2021/09/28 09:44:19;;;;;;;6.90;2.30;;;17.20;99.90;;;;;;5096416;28;20548;-85
2021/09/28 09:46:47;;;;;;;8.90;2.43;;;17.30;99.90;;;;;;5095651;28;20450;-84
2021/09/28 09:49:18;;;;;;;4.33;2.20;;;17.30;99.90;;;;;;5094177;28;20512;-85
2021/09/28 09:51:47;;;;;;;2.90;2.20;;;17.40;99.90;;;;;;5097923;28;20454;-84
2021/09/28 09:54:15;;;;;;;3.27;2.20;;;17.40;99.90;;;;;;5099571;28;20491;-85
2021/09/28 09:56:44;;;;;;;9.47;2.90;;;17.40;99.90;;;;;;5097014;28;20458;-85
2021/09/28 09:59:12;;;;;;;6.50;2.90;;;17.50;99.90;;;;;;5096416;28;20576;-85
2021/09/28 10:01:39;;;;;;;5.10;2.87;;;17.50;99.90;;;;;;5100230;28;20478;-86
2021/09/28 10:04:07;;;;;;;6.83;2.80;;;17.60;99.90;;;;;;5090827;28;20465;-84
2021/09/28 10:06:36;;;;;;;8.33;3.00;;;17.60;99.90;;;;;;5095201;28;20542;-84
2021/09/28 10:09:05;;;;;;;8.37;2.47;;;17.70;99.90;;;;;;5101695;28;20570;-83
2021/09/28 10:11:36;;;;;;;6.67;2.63;;;17.70;99.90;;;;;;5096199;28;20476;-85
2021/09/28 10:14:04;;;;;;;8.03;2.50;;;17.70;99.90;;;;;;5092483;28;20460;-85
2021/09/28 10:16:32;;;;;;;10.33;2.33;;;17.80;99.90;;;;;;5099375;28;20552;-86
2021/09/28 10:19:00;;;;;;;10.07;2.07;;;17.80;99.90;;;;;;5099668;28;20456;-84
2021/09/28 10:21:41;;;;;;;9.53;2.60;;;17.80;99.90;;;;;;5100944;28;20452;-84
2021/09/28 10:24:28;;;;;;;4.53;1.93;;;17.80;99.90;;;;;;5097460;28;20484;-83
2021/09/28 10:27:28;;;;;;;7.37;2.20;;;17.90;99.90;;;;;;5091600;28;21051;-86
2021/09/28 10:29:56;;;;;;;6.50;2.33;;;17.90;99.90;;;;;;5091786;28;20493;-84
2021/09/28 10:32:45;;;;;;;5.10;2.70;;;17.90;99.90;;;;;;5097107;28;20502;-85
2021/09/28 10:35:14;;;;;;;4.50;2.70;;;17.90;99.90;;;;;;5095859;28;20555;-85
2021/09/28 10:37:58;;;;;;;6.00;2.50;;;18.00;99.90;;;;;;5095923;28;20556;-85
2021/09/28 10:40:48;;;;;;;4.00;2.00;;;18.00;99.90;;;;;;5097285;28;20462;-85
2021/09/28 10:43:32;;;;;;;4.43;1.70;;;18.00;99.90;;;;;;5094785;28;20452;-85
2021/09/28 10:46:05;;;;;;;5.80;1.93;;;18.00;99.90;;;;;;5092937;28;20456;-86
2021/09/28 10:48:35;;;;;;;3.77;2.20;;;18.10;99.90;;;;;;5096839;28;20452;-83
2021/09/28 10:51:11;;;;;;;4.77;1.93;;;18.10;99.90;;;;;;5096426;28;20472;-84
2021/09/28 10:53:43;;;;;;;7.63;2.63;;;18.10;99.90;;;;;;5095515;28;20455;-84
2021/09/28 10:56:11;;;;;;;6.80;2.17;;;18.20;99.90;;;;;;5092689;28;20852;-83
2021/09/28 10:58:53;;;;;;;2.77;1.83;;;18.20;99.90;;;;;;5095086;28;20464;-85
2021/09/28 11:01:21;;;;;;;6.20;2.40;;;18.20;99.90;;;;;;5096902;28;20492;-83
2021/09/28 11:04:00;;;;;;;6.67;1.70;;;18.30;99.90;;;;;;5089647;28;20469;-84
2021/09/28 11:06:46;;;;;;;2.47;1.90;;;18.30;99.90;;;;;;5093976;28;20539;-85
2021/09/28 11:09:16;;;;;;;6.20;2.17;;;18.30;99.90;;;;;;5094108;28;20489;-84
2021/09/28 11:11:45;;;;;;;5.93;2.37;;;18.30;99.90;;;;;;5097118;28;20461;-85
2021/09/28 11:14:13;;;;;;;4.40;2.37;;;18.40;99.90;;;;;;5096334;28;21255;-86
2021/09/28 11:16:41;;;;;;;8.00;2.23;;;18.40;99.90;;;;;;5094954;28;20467;-85
2021/09/28 11:19:10;;;;;;;10.50;2.17;;;18.40;99.90;;;;;;5096797;28;20468;-86
2021/09/28 11:21:41;;;;;;;3.70;2.07;;;18.50;99.90;;;;;;5092613;28;20575;-83
2021/09/28 11:24:10;;;;;;;7.77;2.30;;;18.50;99.90;;;;;;5092950;28;20542;-85
2021/09/28 11:27:13;;;;;;;3.87;1.83;;;18.50;99.90;;;;;;5094391;28;20458;-86
2021/09/28 11:29:41;;;;;;;3.33;1.87;;;18.60;99.90;;;;;;5092942;28;20601;-86
2021/09/28 11:32:10;;;;;;;8.30;2.30;;;18.60;99.90;;;;;;5100439;28;21194;-85
2021/09/28 11:34:39;;;;;;;4.47;2.00;;;18.60;99.90;;;;;;5097376;28;20461;-87
2021/09/28 11:37:07;;;;;;;5.80;2.87;;;18.60;99.90;;;;;;5098190;28;20463;-86
2021/09/28 11:39:40;;;;;;;6.97;2.70;;;18.70;99.90;;;;;;5094720;28;20460;-86
2021/09/28 11:42:09;;;;;;;6.47;1.90;;;18.70;99.90;;;;;;5091569;28;20462;-85
2021/09/28 11:44:40;;;;;;;9.80;2.30;;;18.70;99.90;;;;;;5095669;28;20458;-87
2021/09/28 11:47:22;;;;;;;5.00;2.00;;;18.70;99.90;;;;;;5095673;28;20493;-86
2021/09/28 11:49:52;;;;;;;5.93;1.83;;;18.80;99.90;;;;;;5099880;28;20964;-88
2021/09/28 11:52:20;;;;;;;5.77;1.97;;;18.80;99.90;;;;;;5095360;28;20561;-87
2021/09/28 11:54:49;;;;;;;4.23;2.07;;;18.80;99.90;;;;;;5098008;28;20456;-86
2021/09/28 11:57:16;;;;;;;3.60;2.20;;;18.80;99.90;;;;;;5092198;28;20454;-86
2021/09/28 11:59:46;;;;;;;5.20;1.73;;;18.90;99.90;;;;;;5093284;28;20456;-87
2021/09/28 12:02:15;;;;;;;9.43;2.40;;;18.90;99.90;;;;;;5100205;28;20457;-86
2021/09/28 12:07:58;;;;;;;5.50;2.50;;;19.00;99.90;;;;;;5082386;28;20449;-86
2021/09/28 12:10:25;;;;;;;5.93;2.30;;;19.00;99.90;;;;;;5095525;28;20987;-86
2021/09/28 12:12:53;;;;;;;3.80;2.40;;;19.00;99.90;;;;;;5093491;28;20561;-87
2021/09/28 12:15:22;;;;;;;3.87;2.60;;;19.10;99.90;;;;;;5098189;28;20470;-86
2021/09/28 12:17:50;;;;;;;10.10;4.43;;;19.10;99.90;;;;;;5105930;28;20842;-85
2021/09/28 12:20:19;;;;;;;3.00;2.67;;;19.10;99.90;;;;;;5102572;28;20551;-88
2021/09/28 12:22:48;;;;;;;4.50;2.90;;;19.20;99.90;;;;;;5100837;28;20464;-86
2021/09/28 12:25:19;;;;;;;5.20;2.20;;;19.20;99.90;;;;;;5099077;28;20481;-86
2021/09/28 12:27:54;;;;;;;5.80;2.53;;;19.20;99.90;;;;;;5093110;28;20465;-86
2021/09/28 12:30:26;;;;;;;6.20;2.37;;;19.30;99.90;;;;;;5104016;28;20549;-85
2021/09/28 12:32:53;;;;;;;4.37;2.00;;;19.30;99.90;;;;;;5103422;28;20453;-85
2021/09/28 12:35:29;;;;;;;4.63;2.27;;;19.30;99.90;;;;;;5100393;28;20559;-87
2021/09/28 12:38:01;;;;;;;5.20;2.30;;;19.30;99.90;;;;;;5094747;28;20457;-86
2021/09/28 12:40:31;;;;;;;7.40;2.30;;;19.40;99.90;;;;;;5097146;28;20473;-86
2021/09/28 12:43:06;;;;;;;5.40;2.40;;;19.40;99.90;;;;;;5093338;28;20476;-85
2021/09/28 12:45:46;;;;;;;7.40;2.37;;;19.40;99.90;;;;;;5095256;28;20472;-85
2021/09/28 12:48:22;;;;;;;6.27;2.47;;;19.40;99.90;;;;;;5098344;28;20955;-86
2021/09/28 12:51:00;;;;;;;5.47;2.90;;;19.40;99.90;;;;;;5096140;28;20572;-84
2021/09/28 12:53:30;;;;;;;3.67;2.00;;;19.50;99.90;;;;;;5102589;28;20468;-85
2021/09/28 12:55:57;;;;;;;4.07;2.00;;;19.50;99.90;;;;;;5093806;28;20464;-87
2021/09/28 12:58:25;;;;;;;5.13;2.33;;;19.50;99.90;;;;;;5100049;28;20492;-86
2021/09/28 13:00:54;;;;;;;10.50;3.40;;;19.50;99.90;;;;;;5103321;28;21051;-86
2021/09/28 13:03:22;;;;;;;5.70;2.50;;;19.50;99.90;;;;;;5101598;28;20936;-88